sensor_id;sensor_type;location;lat;lon;timestamp;temperature;humidity
79016;DHT22;72726;44.842;37.556;2023-11-19T00:12:00;7.80;86.20
79016;DHT22;72726;44.842;37.556;2023-11-19T00:13:02;7.81;85.99
79016;DHT22;72726;44.842;37.556;2023-11-19T00:14:04;7.83;86.05
79016;DHT22;72726;44.842;37.556;2023-11-19T00:15:06;7.87;86.05
79016;DHT22;72726;44.842;37.556;2023-11-19T00:16:12;7.90;86.00
79016;DHT22;72726;44.842;37.556;2023-11-19T00:17:13;7.88;86.05
79016;DHT22;72726;44.842;37.556;2023-11-19T00:18:14;7.90;85.68
79016;DHT22;72726;44.842;37.556;2023-11-19T00:19:16;7.94;85.71
79016;DHT22;72726;44.842;37.556;2023-11-19T00:20:19;7.94;85.64
79016;DHT22;72726;44.842;37.556;2023-11-19T00:21:20;7.97;85.94
79016;DHT22;72726;44.842;37.556;2023-11-19T00:22:22;7.98;85.63
79016;DHT22;72726;44.842;37.556;2023-11-19T00:23:23;7.98;85.90
79016;DHT22;72726;44.842;37.556;2023-11-19T00:24:24;7.97;85.83
79016;DHT22;72726;44.842;37.556;2023-11-19T00:25:26;7.97;86.14
79016;DHT22;72726;44.842;37.556;2023-11-19T00:26:27;7.98;86.25
79016;DHT22;72726;44.842;37.556;2023-11-19T00:27:29;7.98;86.05
79016;DHT22;72726;44.842;37.556;2023-11-19T00:28:31;7.95;86.02
79016;DHT22;72726;44.842;37.556;2023-11-19T00:29:34;7.95;86.34
79016;DHT22;72726;44.842;37.556;2023-11-19T00:30:35;7.94;86.55
79016;DHT22;72726;44.842;37.556;2023-11-19T00:31:36;7.97;86.24
79016;DHT22;72726;44.842;37.556;2023-11-19T00:32:37;7.95;86.15
79016;DHT22;72726;44.842;37.556;2023-11-19T00:33:40;7.92;86.22
79016;DHT22;72726;44.842;37.556;2023-11-19T00:34:46;7.97;86.04
79016;DHT22;72726;44.842;37.556;2023-11-19T00:35:48;7.95;86.28
79016;DHT22;72726;44.842;37.556;2023-11-19T00:36:50;7.94;86.36
79016;DHT22;72726;44.842;37.556;2023-11-19T00:37:51;7.92;86.33
79016;DHT22;72726;44.842;37.556;2023-11-19T00:38:55;7.97;86.08
79016;DHT22;72726;44.842;37.556;2023-11-19T00:39:56;7.98;86.09
79016;DHT22;72726;44.842;37.556;2023-11-19T00:40:57;7.97;86.14
79016;DHT22;72726;44.842;37.556;2023-11-19T00:41:58;7.98;86.20
79016;DHT22;72726;44.842;37.556;2023-11-19T00:43:00;7.97;86.59
79016;DHT22;72726;44.842;37.556;2023-11-19T00:44:01;7.94;86.02
79016;DHT22;72726;44.842;37.556;2023-11-19T00:45:03;8.01;86.13
79016;DHT22;72726;44.842;37.556;2023-11-19T00:46:07;8.01;86.24
79016;DHT22;72726;44.842;37.556;2023-11-19T00:47:08;7.99;86.28
79016;DHT22;72726;44.842;37.556;2023-11-19T00:48:10;8.01;86.04
79016;DHT22;72726;44.842;37.556;2023-11-19T00:49:11;8.03;86.30
79016;DHT22;72726;44.842;37.556;2023-11-19T00:50:13;8.01;86.44
79016;DHT22;72726;44.842;37.556;2023-11-19T00:51:14;7.99;86.27
79016;DHT22;72726;44.842;37.556;2023-11-19T00:52:16;7.99;86.04
79016;DHT22;72726;44.842;37.556;2023-11-19T00:53:18;8.03;86.38
79016;DHT22;72726;44.842;37.556;2023-11-19T00:54:19;7.99;86.49
79016;DHT22;72726;44.842;37.556;2023-11-19T00:55:20;7.98;86.49
79016;DHT22;72726;44.842;37.556;2023-11-19T00:56:22;7.99;86.52
79016;DHT22;72726;44.842;37.556;2023-11-19T00:57:23;7.99;86.44
79016;DHT22;72726;44.842;37.556;2023-11-19T00:58:25;7.97;86.60
79016;DHT22;72726;44.842;37.556;2023-11-19T00:59:26;7.97;86.90
79016;DHT22;72726;44.842;37.556;2023-11-19T01:00:27;7.97;86.91
79016;DHT22;72726;44.842;37.556;2023-11-19T01:01:29;7.97;86.86
79016;DHT22;72726;44.842;37.556;2023-11-19T01:02:31;7.94;86.83
79016;DHT22;72726;44.842;37.556;2023-11-19T01:03:32;7.95;86.53
79016;DHT22;72726;44.842;37.556;2023-11-19T01:04:34;7.97;86.51
79016;DHT22;72726;44.842;37.556;2023-11-19T01:05:36;7.95;86.48
79016;DHT22;72726;44.842;37.556;2023-11-19T01:06:37;7.98;86.75
79016;DHT22;72726;44.842;37.556;2023-11-19T01:07:39;7.98;86.77
79016;DHT22;72726;44.842;37.556;2023-11-19T01:08:42;7.99;86.91
79016;DHT22;72726;44.842;37.556;2023-11-19T01:09:45;8.01;86.74
79016;DHT22;72726;44.842;37.556;2023-11-19T01:10:46;7.99;87.00
79016;DHT22;72726;44.842;37.556;2023-11-19T01:11:48;7.99;86.92
79016;DHT22;72726;44.842;37.556;2023-11-19T01:12:50;7.97;86.92
79016;DHT22;72726;44.842;37.556;2023-11-19T01:13:51;7.98;86.93
79016;DHT22;72726;44.842;37.556;2023-11-19T01:14:53;7.98;86.51
79016;DHT22;72726;44.842;37.556;2023-11-19T01:15:54;7.99;86.23
79016;DHT22;72726;44.842;37.556;2023-11-19T01:16:57;8.01;86.67
79016;DHT22;72726;44.842;37.556;2023-11-19T01:17:58;8.01;86.65
79016;DHT22;72726;44.842;37.556;2023-11-19T01:19:00;8.01;86.73
79016;DHT22;72726;44.842;37.556;2023-11-19T01:20:06;8.03;86.87
79016;DHT22;72726;44.842;37.556;2023-11-19T01:21:08;8.03;86.79
79016;DHT22;72726;44.842;37.556;2023-11-19T01:22:09;8.06;86.26
79016;DHT22;72726;44.842;37.556;2023-11-19T01:23:10;8.05;86.45
79016;DHT22;72726;44.842;37.556;2023-11-19T01:24:12;8.08;86.26
79016;DHT22;72726;44.842;37.556;2023-11-19T01:25:14;8.11;86.72
79016;DHT22;72726;44.842;37.556;2023-11-19T01:26:15;8.06;85.68
79016;DHT22;72726;44.842;37.556;2023-11-19T01:27:17;8.13;86.02
79016;DHT22;72726;44.842;37.556;2023-11-19T01:28:19;8.15;86.01
79016;DHT22;72726;44.842;37.556;2023-11-19T01:29:20;8.12;86.06
79016;DHT22;72726;44.842;37.556;2023-11-19T01:30:22;8.15;86.04
79016;DHT22;72726;44.842;37.556;2023-11-19T01:31:24;8.12;85.83
79016;DHT22;72726;44.842;37.556;2023-11-19T01:32:25;8.13;86.27
79016;DHT22;72726;44.842;37.556;2023-11-19T01:33:27;8.13;86.46
79016;DHT22;72726;44.842;37.556;2023-11-19T01:34:29;8.15;86.17
79016;DHT22;72726;44.842;37.556;2023-11-19T01:35:30;8.13;86.03
79016;DHT22;72726;44.842;37.556;2023-11-19T01:36:31;8.09;86.23
79016;DHT22;72726;44.842;37.556;2023-11-19T01:37:33;8.09;86.26
79016;DHT22;72726;44.842;37.556;2023-11-19T01:38:36;8.09;86.49
79016;DHT22;72726;44.842;37.556;2023-11-19T01:39:37;8.09;86.68
79016;DHT22;72726;44.842;37.556;2023-11-19T01:40:39;8.09;86.83
79016;DHT22;72726;44.842;37.556;2023-11-19T01:41:40;8.06;86.08
79016;DHT22;72726;44.842;37.556;2023-11-19T01:42:41;8.06;86.27
79016;DHT22;72726;44.842;37.556;2023-11-19T01:43:43;8.08;86.57
79016;DHT22;72726;44.842;37.556;2023-11-19T01:44:56;8.05;86.69
79016;DHT22;72726;44.842;37.556;2023-11-19T01:45:59;8.03;86.56
79016;DHT22;72726;44.842;37.556;2023-11-19T01:47:01;8.05;86.93
79016;DHT22;72726;44.842;37.556;2023-11-19T01:48:04;8.05;87.18
79016;DHT22;72726;44.842;37.556;2023-11-19T01:49:06;8.02;87.12
79016;DHT22;72726;44.842;37.556;2023-11-19T01:50:09;8.02;87.15
79016;DHT22;72726;44.842;37.556;2023-11-19T01:51:13;8.02;87.21
79016;DHT22;72726;44.842;37.556;2023-11-19T01:52:18;8.02;87.20
79016;DHT22;72726;44.842;37.556;2023-11-19T01:53:20;8.03;86.55
79016;DHT22;72726;44.842;37.556;2023-11-19T01:54:22;8.03;86.81
79016;DHT22;72726;44.842;37.556;2023-11-19T01:55:25;8.03;86.98
79016;DHT22;72726;44.842;37.556;2023-11-19T01:56:30;8.05;86.41
79016;DHT22;72726;44.842;37.556;2023-11-19T01:57:33;8.06;86.30
79016;DHT22;72726;44.842;37.556;2023-11-19T01:58:36;8.08;86.41
79016;DHT22;72726;44.842;37.556;2023-11-19T01:59:37;8.11;86.33
79016;DHT22;72726;44.842;37.556;2023-11-19T02:00:40;8.09;86.42
79016;DHT22;72726;44.842;37.556;2023-11-19T02:01:42;8.09;86.61
79016;DHT22;72726;44.842;37.556;2023-11-19T02:02:44;8.09;86.70
79016;DHT22;72726;44.842;37.556;2023-11-19T02:03:47;8.08;86.33
79016;DHT22;72726;44.842;37.556;2023-11-19T02:04:51;8.11;86.49
79016;DHT22;72726;44.842;37.556;2023-11-19T02:05:53;8.09;86.16
79016;DHT22;72726;44.842;37.556;2023-11-19T02:06:56;8.09;86.27
79016;DHT22;72726;44.842;37.556;2023-11-19T02:07:58;8.08;86.54
79016;DHT22;72726;44.842;37.556;2023-11-19T02:09:00;8.11;86.22
79016;DHT22;72726;44.842;37.556;2023-11-19T02:10:02;8.08;86.30
79016;DHT22;72726;44.842;37.556;2023-11-19T02:11:04;8.08;86.14
79016;DHT22;72726;44.842;37.556;2023-11-19T02:12:08;8.09;86.20
79016;DHT22;72726;44.842;37.556;2023-11-19T02:13:10;8.11;86.47
79016;DHT22;72726;44.842;37.556;2023-11-19T02:14:15;8.12;86.37
79016;DHT22;72726;44.842;37.556;2023-11-19T02:15:17;8.13;86.35
79016;DHT22;72726;44.842;37.556;2023-11-19T02:16:20;8.11;86.04
79016;DHT22;72726;44.842;37.556;2023-11-19T02:17:28;8.15;85.81
79016;DHT22;72726;44.842;37.556;2023-11-19T02:18:32;8.15;85.75
79016;DHT22;72726;44.842;37.556;2023-11-19T02:19:34;8.18;86.02
79016;DHT22;72726;44.842;37.556;2023-11-19T02:20:35;8.18;86.13
79016;DHT22;72726;44.842;37.556;2023-11-19T02:21:37;8.18;86.03
79016;DHT22;72726;44.842;37.556;2023-11-19T02:22:39;8.21;86.30
79016;DHT22;72726;44.842;37.556;2023-11-19T02:23:41;8.16;86.16
79016;DHT22;72726;44.842;37.556;2023-11-19T02:24:43;8.16;85.82
79016;DHT22;72726;44.842;37.556;2023-11-19T02:27:02;8.18;85.83
79016;DHT22;72726;44.842;37.556;2023-11-19T02:28:07;8.19;85.87
79016;DHT22;72726;44.842;37.556;2023-11-19T02:29:09;8.21;85.36
79016;DHT22;72726;44.842;37.556;2023-11-19T02:30:11;8.19;85.53
79016;DHT22;72726;44.842;37.556;2023-11-19T02:31:15;8.19;85.63
79016;DHT22;72726;44.842;37.556;2023-11-19T02:32:17;8.24;85.22
79016;DHT22;72726;44.842;37.556;2023-11-19T02:33:19;8.21;85.32
79016;DHT22;72726;44.842;37.556;2023-11-19T02:34:20;8.21;85.71
79016;DHT22;72726;44.842;37.556;2023-11-19T02:35:25;8.18;85.80
79016;DHT22;72726;44.842;37.556;2023-11-19T02:36:27;8.19;85.36
79016;DHT22;72726;44.842;37.556;2023-11-19T02:37:29;8.21;85.78
79016;DHT22;72726;44.842;37.556;2023-11-19T02:38:31;8.19;85.50
79016;DHT22;72726;44.842;37.556;2023-11-19T02:39:32;8.21;85.55
79016;DHT22;72726;44.842;37.556;2023-11-19T02:40:34;8.21;85.38
79016;DHT22;72726;44.842;37.556;2023-11-19T02:41:35;8.21;85.65
79016;DHT22;72726;44.842;37.556;2023-11-19T02:42:37;8.19;85.55
79016;DHT22;72726;44.842;37.556;2023-11-19T02:43:38;8.19;85.64
79016;DHT22;72726;44.842;37.556;2023-11-19T02:44:44;8.19;85.45
79016;DHT22;72726;44.842;37.556;2023-11-19T02:45:45;8.21;85.67
79016;DHT22;72726;44.842;37.556;2023-11-19T02:46:47;8.22;85.41
79016;DHT22;72726;44.842;37.556;2023-11-19T02:47:49;8.24;85.80
79016;DHT22;72726;44.842;37.556;2023-11-19T02:48:51;8.25;85.56
79016;DHT22;72726;44.842;37.556;2023-11-19T02:49:52;8.25;85.62
79016;DHT22;72726;44.842;37.556;2023-11-19T02:50:54;8.28;85.93
79016;DHT22;72726;44.842;37.556;2023-11-19T02:51:55;8.29;85.84
79016;DHT22;72726;44.842;37.556;2023-11-19T02:52:56;8.29;85.91
79016;DHT22;72726;44.842;37.556;2023-11-19T02:53:58;8.28;85.83
79016;DHT22;72726;44.842;37.556;2023-11-19T02:55:00;8.28;85.89
79016;DHT22;72726;44.842;37.556;2023-11-19T02:56:01;8.30;85.70
79016;DHT22;72726;44.842;37.556;2023-11-19T02:57:13;8.32;85.58
79016;DHT22;72726;44.842;37.556;2023-11-19T02:58:14;8.33;85.26
79016;DHT22;72726;44.842;37.556;2023-11-19T02:59:24;8.30;85.29
79016;DHT22;72726;44.842;37.556;2023-11-19T03:00:28;8.30;85.31
79016;DHT22;72726;44.842;37.556;2023-11-19T03:01:35;8.30;85.39
79016;DHT22;72726;44.842;37.556;2023-11-19T03:02:38;8.29;85.68
79016;DHT22;72726;44.842;37.556;2023-11-19T03:03:45;8.29;85.87
79016;DHT22;72726;44.842;37.556;2023-11-19T03:04:50;8.28;85.56
79016;DHT22;72726;44.842;37.556;2023-11-19T03:05:51;8.29;85.69
79016;DHT22;72726;44.842;37.556;2023-11-19T03:06:52;8.26;85.58
79016;DHT22;72726;44.842;37.556;2023-11-19T03:07:54;8.26;85.86
79016;DHT22;72726;44.842;37.556;2023-11-19T03:08:55;8.25;85.95
79016;DHT22;72726;44.842;37.556;2023-11-19T03:09:57;8.26;85.90
79016;DHT22;72726;44.842;37.556;2023-11-19T03:10:58;8.26;85.63
79016;DHT22;72726;44.842;37.556;2023-11-19T03:12:00;8.28;85.28
79016;DHT22;72726;44.842;37.556;2023-11-19T03:13:02;8.26;85.53
79016;DHT22;72726;44.842;37.556;2023-11-19T03:14:03;8.25;85.44
79016;DHT22;72726;44.842;37.556;2023-11-19T03:15:05;8.28;85.66
79016;DHT22;72726;44.842;37.556;2023-11-19T03:16:07;8.26;85.25
79016;DHT22;72726;44.842;37.556;2023-11-19T03:17:08;8.29;85.51
79016;DHT22;72726;44.842;37.556;2023-11-19T03:18:11;8.30;85.33
79016;DHT22;72726;44.842;37.556;2023-11-19T03:19:13;8.32;85.42
79016;DHT22;72726;44.842;37.556;2023-11-19T03:20:14;8.36;85.25
79016;DHT22;72726;44.842;37.556;2023-11-19T03:21:19;8.33;85.15
79016;DHT22;72726;44.842;37.556;2023-11-19T03:22:20;8.35;85.02
79016;DHT22;72726;44.842;37.556;2023-11-19T03:23:21;8.36;84.90
79016;DHT22;72726;44.842;37.556;2023-11-19T03:24:23;8.35;85.20
79016;DHT22;72726;44.842;37.556;2023-11-19T03:25:26;8.36;84.99
79016;DHT22;72726;44.842;37.556;2023-11-19T03:26:37;8.36;84.96
79016;DHT22;72726;44.842;37.556;2023-11-19T03:27:39;8.35;84.83
79016;DHT22;72726;44.842;37.556;2023-11-19T03:28:42;8.36;85.02
79016;DHT22;72726;44.842;37.556;2023-11-19T03:29:43;8.36;85.16
79016;DHT22;72726;44.842;37.556;2023-11-19T03:30:45;8.36;84.56
79016;DHT22;72726;44.842;37.556;2023-11-19T03:31:46;8.38;84.58
79016;DHT22;72726;44.842;37.556;2023-11-19T03:32:47;8.35;84.99
79016;DHT22;72726;44.842;37.556;2023-11-19T03:33:50;8.35;85.13
79016;DHT22;72726;44.842;37.556;2023-11-19T03:34:51;8.35;85.10
79016;DHT22;72726;44.842;37.556;2023-11-19T03:35:53;8.35;84.89
79016;DHT22;72726;44.842;37.556;2023-11-19T03:36:55;8.36;85.33
79016;DHT22;72726;44.842;37.556;2023-11-19T03:37:57;8.39;85.29
79016;DHT22;72726;44.842;37.556;2023-11-19T03:38:59;8.40;85.20
79016;DHT22;72726;44.842;37.556;2023-11-19T03:40:00;8.43;85.38
79016;DHT22;72726;44.842;37.556;2023-11-19T03:41:13;8.43;84.99
79016;DHT22;72726;44.842;37.556;2023-11-19T03:42:15;8.47;85.29
79016;DHT22;72726;44.842;37.556;2023-11-19T03:43:16;8.46;84.84
79016;DHT22;72726;44.842;37.556;2023-11-19T03:44:17;8.49;84.95
79016;DHT22;72726;44.842;37.556;2023-11-19T03:45:20;8.50;85.03
79016;DHT22;72726;44.842;37.556;2023-11-19T03:46:21;8.54;84.97
79016;DHT22;72726;44.842;37.556;2023-11-19T03:47:23;8.54;84.90
79016;DHT22;72726;44.842;37.556;2023-11-19T03:48:25;8.57;84.70
79016;DHT22;72726;44.842;37.556;2023-11-19T03:49:27;8.59;84.80
79016;DHT22;72726;44.842;37.556;2023-11-19T03:50:29;8.61;84.84
79016;DHT22;72726;44.842;37.556;2023-11-19T03:51:31;8.61;84.65
79016;DHT22;72726;44.842;37.556;2023-11-19T03:52:32;8.61;84.01
79016;DHT22;72726;44.842;37.556;2023-11-19T03:53:35;8.61;84.45
79016;DHT22;72726;44.842;37.556;2023-11-19T03:54:36;8.61;84.28
79016;DHT22;72726;44.842;37.556;2023-11-19T03:55:38;8.64;84.44
79016;DHT22;72726;44.842;37.556;2023-11-19T03:56:40;8.66;84.20
79016;DHT22;72726;44.842;37.556;2023-11-19T03:57:42;8.66;84.35
79016;DHT22;72726;44.842;37.556;2023-11-19T03:58:43;8.68;84.44
79016;DHT22;72726;44.842;37.556;2023-11-19T03:59:48;8.70;84.42
79016;DHT22;72726;44.842;37.556;2023-11-19T04:00:49;8.70;84.46
79016;DHT22;72726;44.842;37.556;2023-11-19T04:01:51;8.71;84.49
79016;DHT22;72726;44.842;37.556;2023-11-19T04:02:54;8.71;84.06
79016;DHT22;72726;44.842;37.556;2023-11-19T04:03:56;8.73;84.23
79016;DHT22;72726;44.842;37.556;2023-11-19T04:04:58;8.74;84.01
79016;DHT22;72726;44.842;37.556;2023-11-19T04:05:59;8.75;83.92
79016;DHT22;72726;44.842;37.556;2023-11-19T04:07:01;8.75;83.99
79016;DHT22;72726;44.842;37.556;2023-11-19T04:08:04;8.75;84.15
79016;DHT22;72726;44.842;37.556;2023-11-19T04:09:06;8.75;84.17
79016;DHT22;72726;44.842;37.556;2023-11-19T04:10:08;8.78;84.38
79016;DHT22;72726;44.842;37.556;2023-11-19T04:11:10;8.75;84.28
79016;DHT22;72726;44.842;37.556;2023-11-19T04:12:12;8.75;84.31
79016;DHT22;72726;44.842;37.556;2023-11-19T04:13:13;8.75;84.46
79016;DHT22;72726;44.842;37.556;2023-11-19T04:14:15;8.77;84.57
79016;DHT22;72726;44.842;37.556;2023-11-19T04:15:19;8.80;84.52
79016;DHT22;72726;44.842;37.556;2023-11-19T04:16:26;8.75;84.50
79016;DHT22;72726;44.842;37.556;2023-11-19T04:17:29;8.77;84.52
79016;DHT22;72726;44.842;37.556;2023-11-19T04:18:31;8.78;84.47
79016;DHT22;72726;44.842;37.556;2023-11-19T04:19:33;8.78;84.31
79016;DHT22;72726;44.842;37.556;2023-11-19T04:20:34;8.80;84.12
79016;DHT22;72726;44.842;37.556;2023-11-19T04:21:40;8.77;84.21
79016;DHT22;72726;44.842;37.556;2023-11-19T04:22:42;8.80;84.17
79016;DHT22;72726;44.842;37.556;2023-11-19T04:23:44;8.81;84.01
79016;DHT22;72726;44.842;37.556;2023-11-19T04:24:45;8.78;84.32
79016;DHT22;72726;44.842;37.556;2023-11-19T04:25:47;8.78;84.08
79016;DHT22;72726;44.842;37.556;2023-11-19T04:26:48;8.81;83.91
79016;DHT22;72726;44.842;37.556;2023-11-19T04:27:52;8.80;83.62
79016;DHT22;72726;44.842;37.556;2023-11-19T04:28:54;8.78;83.44
79016;DHT22;72726;44.842;37.556;2023-11-19T04:29:57;8.78;83.33
79016;DHT22;72726;44.842;37.556;2023-11-19T04:30:58;8.74;83.67
79016;DHT22;72726;44.842;37.556;2023-11-19T04:32:00;8.74;83.83
79016;DHT22;72726;44.842;37.556;2023-11-19T04:33:03;8.75;83.77
79016;DHT22;72726;44.842;37.556;2023-11-19T04:34:05;8.74;83.50
79016;DHT22;72726;44.842;37.556;2023-11-19T04:35:07;8.70;83.80
79016;DHT22;72726;44.842;37.556;2023-11-19T04:36:10;8.66;84.01
79016;DHT22;72726;44.842;37.556;2023-11-19T04:37:12;8.63;84.57
79016;DHT22;72726;44.842;37.556;2023-11-19T04:38:14;8.61;84.57
79016;DHT22;72726;44.842;37.556;2023-11-19T04:39:15;8.64;84.98
79016;DHT22;72726;44.842;37.556;2023-11-19T04:40:19;8.66;85.02
79016;DHT22;72726;44.842;37.556;2023-11-19T04:41:23;8.63;85.00
79016;DHT22;72726;44.842;37.556;2023-11-19T04:42:25;8.64;84.99
79016;DHT22;72726;44.842;37.556;2023-11-19T04:43:27;8.63;84.97
79016;DHT22;72726;44.842;37.556;2023-11-19T04:44:28;8.66;84.69
79016;DHT22;72726;44.842;37.556;2023-11-19T04:45:30;8.68;84.33
79016;DHT22;72726;44.842;37.556;2023-11-19T04:46:33;8.66;84.61
79016;DHT22;72726;44.842;37.556;2023-11-19T04:47:34;8.70;84.94
79016;DHT22;72726;44.842;37.556;2023-11-19T04:48:36;8.71;84.40
79016;DHT22;72726;44.842;37.556;2023-11-19T04:49:40;8.68;84.58
79016;DHT22;72726;44.842;37.556;2023-11-19T04:50:43;8.68;84.47
79016;DHT22;72726;44.842;37.556;2023-11-19T04:51:45;8.70;84.62
79016;DHT22;72726;44.842;37.556;2023-11-19T04:52:50;8.71;84.39
79016;DHT22;72726;44.842;37.556;2023-11-19T04:53:51;8.71;84.57
79016;DHT22;72726;44.842;37.556;2023-11-19T04:54:53;8.68;84.42
79016;DHT22;72726;44.842;37.556;2023-11-19T04:55:54;8.67;84.85
79016;DHT22;72726;44.842;37.556;2023-11-19T04:56:55;8.67;84.82
79016;DHT22;72726;44.842;37.556;2023-11-19T04:57:57;8.63;84.48
79016;DHT22;72726;44.842;37.556;2023-11-19T04:58:58;8.64;84.86
79016;DHT22;72726;44.842;37.556;2023-11-19T04:59:59;8.61;85.17
79016;DHT22;72726;44.842;37.556;2023-11-19T05:01:01;8.60;85.04
79016;DHT22;72726;44.842;37.556;2023-11-19T05:02:04;8.61;85.23
79016;DHT22;72726;44.842;37.556;2023-11-19T05:03:09;8.59;85.15
79016;DHT22;72726;44.842;37.556;2023-11-19T05:04:11;8.60;85.04
79016;DHT22;72726;44.842;37.556;2023-11-19T05:05:12;8.60;85.04
79016;DHT22;72726;44.842;37.556;2023-11-19T05:06:16;8.61;85.16
79016;DHT22;72726;44.842;37.556;2023-11-19T05:07:18;8.60;85.05
79016;DHT22;72726;44.842;37.556;2023-11-19T05:08:19;8.61;84.88
79016;DHT22;72726;44.842;37.556;2023-11-19T05:09:20;8.59;85.30
79016;DHT22;72726;44.842;37.556;2023-11-19T05:10:21;8.61;84.70
79016;DHT22;72726;44.842;37.556;2023-11-19T05:11:23;8.61;84.89
79016;DHT22;72726;44.842;37.556;2023-11-19T05:12:24;8.63;85.06
79016;DHT22;72726;44.842;37.556;2023-11-19T05:13:25;8.60;84.96
79016;DHT22;72726;44.842;37.556;2023-11-19T05:14:27;8.63;85.07
79016;DHT22;72726;44.842;37.556;2023-11-19T05:15:28;8.63;84.76
79016;DHT22;72726;44.842;37.556;2023-11-19T05:16:30;8.63;84.65
79016;DHT22;72726;44.842;37.556;2023-11-19T05:17:31;8.63;84.86
79016;DHT22;72726;44.842;37.556;2023-11-19T05:18:33;8.61;85.08
79016;DHT22;72726;44.842;37.556;2023-11-19T05:19:34;8.60;84.74
79016;DHT22;72726;44.842;37.556;2023-11-19T05:20:35;8.61;85.15
79016;DHT22;72726;44.842;37.556;2023-11-19T05:21:36;8.60;85.24
79016;DHT22;72726;44.842;37.556;2023-11-19T05:22:39;8.61;84.90
79016;DHT22;72726;44.842;37.556;2023-11-19T05:23:41;8.59;84.68
79016;DHT22;72726;44.842;37.556;2023-11-19T05:24:42;8.59;84.89
79016;DHT22;72726;44.842;37.556;2023-11-19T05:25:44;8.61;85.18
79016;DHT22;72726;44.842;37.556;2023-11-19T05:26:46;8.61;85.13
79016;DHT22;72726;44.842;37.556;2023-11-19T05:27:48;8.57;85.51
79016;DHT22;72726;44.842;37.556;2023-11-19T05:28:50;8.60;85.53
79016;DHT22;72726;44.842;37.556;2023-11-19T05:29:51;8.60;85.58
79016;DHT22;72726;44.842;37.556;2023-11-19T05:30:53;8.61;85.85
79016;DHT22;72726;44.842;37.556;2023-11-19T05:31:54;8.57;86.03
79016;DHT22;72726;44.842;37.556;2023-11-19T05:32:56;8.57;86.20
79016;DHT22;72726;44.842;37.556;2023-11-19T05:33:57;8.56;86.43
79016;DHT22;72726;44.842;37.556;2023-11-19T05:34:58;8.56;86.43
79016;DHT22;72726;44.842;37.556;2023-11-19T05:36:00;8.54;86.33
79016;DHT22;72726;44.842;37.556;2023-11-19T05:37:01;8.53;86.31
79016;DHT22;72726;44.842;37.556;2023-11-19T05:38:02;8.53;86.19
79016;DHT22;72726;44.842;37.556;2023-11-19T05:39:04;8.54;86.39
79016;DHT22;72726;44.842;37.556;2023-11-19T05:40:06;8.54;86.53
79016;DHT22;72726;44.842;37.556;2023-11-19T05:41:15;8.54;86.57
79016;DHT22;72726;44.842;37.556;2023-11-19T05:42:16;8.54;86.63
79016;DHT22;72726;44.842;37.556;2023-11-19T05:43:18;8.59;86.63
79016;DHT22;72726;44.842;37.556;2023-11-19T05:44:19;8.59;86.47
79016;DHT22;72726;44.842;37.556;2023-11-19T05:45:20;8.63;86.68
79016;DHT22;72726;44.842;37.556;2023-11-19T05:46:22;8.63;86.49
79016;DHT22;72726;44.842;37.556;2023-11-19T05:47:24;8.63;86.36
79016;DHT22;72726;44.842;37.556;2023-11-19T05:48:26;8.68;86.03
79016;DHT22;72726;44.842;37.556;2023-11-19T05:49:27;8.68;85.66
79016;DHT22;72726;44.842;37.556;2023-11-19T05:50:29;8.70;85.95
79016;DHT22;72726;44.842;37.556;2023-11-19T05:51:30;8.70;86.43
79016;DHT22;72726;44.842;37.556;2023-11-19T05:52:32;8.70;86.63
79016;DHT22;72726;44.842;37.556;2023-11-19T05:53:35;8.74;86.33
79016;DHT22;72726;44.842;37.556;2023-11-19T05:54:36;8.73;86.13
79016;DHT22;72726;44.842;37.556;2023-11-19T05:55:39;8.74;85.71
79016;DHT22;72726;44.842;37.556;2023-11-19T05:56:57;8.75;86.47
79016;DHT22;72726;44.842;37.556;2023-11-19T05:57:58;8.78;86.53
79016;DHT22;72726;44.842;37.556;2023-11-19T05:59:00;8.78;86.27
79016;DHT22;72726;44.842;37.556;2023-11-19T06:00:02;8.78;85.96
79016;DHT22;72726;44.842;37.556;2023-11-19T06:01:13;8.84;86.19
79016;DHT22;72726;44.842;37.556;2023-11-19T06:02:14;8.84;85.97
79016;DHT22;72726;44.842;37.556;2023-11-19T06:03:19;8.84;85.95
79016;DHT22;72726;44.842;37.556;2023-11-19T06:04:20;8.85;85.94
79016;DHT22;72726;44.842;37.556;2023-11-19T06:05:22;8.87;86.03
79016;DHT22;72726;44.842;37.556;2023-11-19T06:06:23;8.91;86.13
79016;DHT22;72726;44.842;37.556;2023-11-19T06:07:25;8.91;86.12
79016;DHT22;72726;44.842;37.556;2023-11-19T06:08:27;8.92;85.67
79016;DHT22;72726;44.842;37.556;2023-11-19T06:09:28;8.92;85.67
79016;DHT22;72726;44.842;37.556;2023-11-19T06:10:30;8.89;85.26
79016;DHT22;72726;44.842;37.556;2023-11-19T06:11:35;8.91;85.47
79016;DHT22;72726;44.842;37.556;2023-11-19T06:12:37;8.92;85.54
79016;DHT22;72726;44.842;37.556;2023-11-19T06:13:39;8.91;85.74
79016;DHT22;72726;44.842;37.556;2023-11-19T06:14:41;8.91;85.39
79016;DHT22;72726;44.842;37.556;2023-11-19T06:15:43;8.88;85.32
79016;DHT22;72726;44.842;37.556;2023-11-19T06:16:44;8.87;86.00
79016;DHT22;72726;44.842;37.556;2023-11-19T06:17:46;8.88;85.66
79016;DHT22;72726;44.842;37.556;2023-11-19T06:18:47;8.81;86.13
79016;DHT22;72726;44.842;37.556;2023-11-19T06:19:49;8.83;86.26
79016;DHT22;72726;44.842;37.556;2023-11-19T06:20:50;8.83;86.40
79016;DHT22;72726;44.842;37.556;2023-11-19T06:21:52;8.84;86.34
79016;DHT22;72726;44.842;37.556;2023-11-19T06:22:53;8.83;86.31
79016;DHT22;72726;44.842;37.556;2023-11-19T06:23:55;8.80;86.61
79016;DHT22;72726;44.842;37.556;2023-11-19T06:24:57;8.83;86.71
79016;DHT22;72726;44.842;37.556;2023-11-19T06:26:00;8.84;86.45
79016;DHT22;72726;44.842;37.556;2023-11-19T06:27:01;8.80;86.69
79016;DHT22;72726;44.842;37.556;2023-11-19T06:28:04;8.81;86.16
79016;DHT22;72726;44.842;37.556;2023-11-19T06:29:05;8.78;86.45
79016;DHT22;72726;44.842;37.556;2023-11-19T06:30:08;8.80;86.46
79016;DHT22;72726;44.842;37.556;2023-11-19T06:31:10;8.77;86.73
79016;DHT22;72726;44.842;37.556;2023-11-19T06:32:12;8.78;86.79
79016;DHT22;72726;44.842;37.556;2023-11-19T06:33:13;8.77;86.63
79016;DHT22;72726;44.842;37.556;2023-11-19T06:34:15;8.75;86.51
79016;DHT22;72726;44.842;37.556;2023-11-19T06:35:17;8.73;86.45
79016;DHT22;72726;44.842;37.556;2023-11-19T06:36:18;8.75;87.02
79016;DHT22;72726;44.842;37.556;2023-11-19T06:37:20;8.73;86.66
79016;DHT22;72726;44.842;37.556;2023-11-19T06:38:22;8.75;86.98
79016;DHT22;72726;44.842;37.556;2023-11-19T06:39:23;8.75;86.67
79016;DHT22;72726;44.842;37.556;2023-11-19T06:40:25;8.75;86.77
79016;DHT22;72726;44.842;37.556;2023-11-19T06:41:27;8.80;86.60
79016;DHT22;72726;44.842;37.556;2023-11-19T06:42:30;8.78;86.59
79016;DHT22;72726;44.842;37.556;2023-11-19T06:43:31;8.78;86.83
79016;DHT22;72726;44.842;37.556;2023-11-19T06:44:35;8.80;86.85
79016;DHT22;72726;44.842;37.556;2023-11-19T06:45:36;8.78;86.68